createdAt,value
2022-10-30T00:01:28.070Z,98481.50
2022-10-30T00:03:56.610Z,98481.06
2022-10-30T00:06:25.206Z,98475.75
2022-10-30T00:08:53.866Z,98477.34
2022-10-30T00:11:23.128Z,98473.28
2022-10-30T00:13:53.432Z,98477.53
2022-10-30T00:16:22.036Z,98466.81
2022-10-30T00:18:51.293Z,98471.66
2022-10-30T00:21:20.874Z,98467.22
2022-10-30T00:23:53.949Z,98478.09
2022-10-30T00:26:25.711Z,98463.09
2022-10-30T00:28:57.632Z,98466.28
2022-10-30T00:31:26.238Z,98468.72
2022-10-30T00:33:57.158Z,98465.06
2022-10-30T00:36:26.234Z,98466.06
2022-10-30T00:38:55.085Z,98464.81
2022-10-30T00:41:26.065Z,98464.56
2022-10-30T00:43:56.358Z,98467.81
2022-10-30T00:46:32.572Z,98466.38
2022-10-30T00:49:07.245Z,98462.13
2022-10-30T00:51:38.642Z,98464.56
2022-10-30T00:54:11.206Z,98463.75
2022-10-30T00:56:40.508Z,98462.13
2022-10-30T00:59:16.647Z,98465.31
2022-10-30T01:01:48.277Z,98468.13
2022-10-30T01:04:19.499Z,98471.69
2022-10-30T01:06:53.375Z,98470.88
2022-10-30T01:09:23.066Z,98467.88
2022-10-30T01:11:51.616Z,98470.50
2022-10-30T01:14:23.264Z,98469.28
2022-10-30T01:17:32.129Z,98465.78
2022-10-30T01:20:20.889Z,98461.19
2022-10-30T01:23:07.290Z,98461.19
2022-10-30T01:25:51.127Z,98465.19
2022-10-30T01:28:39.406Z,98448.19
2022-10-30T01:31:32.945Z,98453.06
2022-10-30T01:34:18.528Z,98453.81
2022-10-30T01:36:57.127Z,98463.31
2022-10-30T01:39:30.987Z,98460.25
2022-10-30T01:42:00.198Z,98465.06
2022-10-30T01:44:34.988Z,98458.19
2022-10-30T01:47:32.685Z,98453.38
2022-10-30T01:50:18.572Z,98451.13
2022-10-30T01:52:59.904Z,98457.94
2022-10-30T01:55:40.355Z,98457.31
2022-10-30T01:58:20.363Z,98456.03
2022-10-30T02:00:56.012Z,98450.09
2022-10-30T02:03:27.541Z,98467.78
2022-10-30T02:05:56.811Z,98452.44
2022-10-30T02:08:26.210Z,98456.25
2022-10-30T02:10:56.538Z,98458.13
2022-10-30T02:13:25.207Z,98453.25
2022-10-30T02:15:54.538Z,98449.00
2022-10-30T02:18:24.775Z,98439.72
2022-10-30T02:20:55.473Z,98440.31
2022-10-30T02:23:24.498Z,98442.06
2022-10-30T02:25:53.439Z,98445.13
2022-10-30T02:28:23.575Z,98445.31
2022-10-30T02:30:52.662Z,98441.81
2022-10-30T02:33:21.627Z,98444.81
2022-10-30T02:35:50.706Z,98436.69
2022-10-30T02:38:21.032Z,98442.38
2022-10-30T02:40:50.511Z,98440.19
2022-10-30T02:43:20.176Z,98433.31
2022-10-30T02:45:53.567Z,98429.63
2022-10-30T02:48:23.342Z,98436.69
2022-10-30T02:50:53.077Z,98440.06
2022-10-30T02:53:24.035Z,98441.31
2022-10-30T02:55:53.172Z,98443.66
2022-10-30T02:58:23.390Z,98437.13
2022-10-30T03:00:51.995Z,98436.88
2022-10-30T03:03:23.950Z,98441.91
2022-10-30T03:05:52.842Z,98434.50
2022-10-30T03:08:23.809Z,98434.69
2022-10-30T03:10:52.768Z,98433.16
2022-10-30T03:13:21.302Z,98428.13
2022-10-30T03:15:50.407Z,98429.75
2022-10-30T03:18:19.719Z,98442.22
2022-10-30T03:20:48.835Z,98441.41
2022-10-30T03:23:18.343Z,98437.63
2022-10-30T03:25:49.315Z,98434.81
2022-10-30T03:28:18.311Z,98435.44
2022-10-30T03:30:47.828Z,98442.84
2022-10-30T03:33:17.724Z,98434.56
2022-10-30T03:35:47.672Z,98440.13
2022-10-30T03:38:16.706Z,98436.09
2022-10-30T03:40:45.093Z,98439.69
2022-10-30T03:43:15.611Z,98438.25
2022-10-30T03:45:49.565Z,98443.03
2022-10-30T03:48:20.698Z,98449.63
2022-10-30T03:50:49.993Z,98442.41
2022-10-30T03:53:18.687Z,98442.41
2022-10-30T03:55:47.206Z,98447.22
2022-10-30T03:58:17.658Z,98450.81
2022-10-30T04:00:47.292Z,98454.25
2022-10-30T04:03:17.029Z,98452.81
2022-10-30T04:05:46.633Z,98455.69
2022-10-30T04:08:16.236Z,98458.31
2022-10-30T04:10:45.176Z,98452.44
2022-10-30T04:13:17.981Z,98453.06
2022-10-30T04:15:54.205Z,98460.13
2022-10-30T04:18:26.730Z,98457.44
2022-10-30T04:20:55.373Z,98457.75
2022-10-30T04:23:24.026Z,98460.03
2022-10-30T04:25:53.713Z,98457.31
2022-10-30T04:28:24.432Z,98461.38
2022-10-30T04:30:53.031Z,98465.34
2022-10-30T04:33:22.086Z,98461.19
2022-10-30T04:35:50.541Z,98459.22
2022-10-30T04:38:19.682Z,98464.69
2022-10-30T04:40:49.388Z,98463.56
2022-10-30T04:43:20.255Z,98460.38
2022-10-30T04:45:50.655Z,98458.84
2022-10-30T04:48:20.282Z,98461.19
2022-10-30T04:50:49.345Z,98459.56
2022-10-30T04:53:19.727Z,98464.81
2022-10-30T04:55:48.328Z,98462.34
2022-10-30T04:58:17.545Z,98459.94
2022-10-30T05:00:46.306Z,98458.19
2022-10-30T05:03:23.294Z,98454.78
2022-10-30T05:06:05.734Z,98461.34
2022-10-30T05:08:34.898Z,98465.03
2022-10-30T05:11:09.276Z,98460.06
2022-10-30T05:13:39.207Z,98456.84
2022-10-30T05:16:08.815Z,98446.38
2022-10-30T05:18:40.743Z,98454.84
2022-10-30T05:21:09.761Z,98448.97
2022-10-30T05:23:38.615Z,98452.59
2022-10-30T05:26:09.069Z,98447.53
2022-10-30T05:28:39.878Z,98457.25
2022-10-30T05:31:09.807Z,98448.44
2022-10-30T05:33:43.139Z,98449.88
2022-10-30T05:36:11.848Z,98449.50
2022-10-30T05:38:41.000Z,98446.97
2022-10-30T05:41:11.052Z,98445.00
2022-10-30T05:43:40.443Z,98444.44
2022-10-30T05:46:09.463Z,98434.69
2022-10-30T05:48:39.858Z,98436.75
2022-10-30T05:51:08.792Z,98436.41
2022-10-30T05:53:39.780Z,98435.78
2022-10-30T05:56:12.325Z,98438.38
2022-10-30T05:58:42.347Z,98445.94
2022-10-30T06:01:15.390Z,98437.47
2022-10-30T06:03:46.263Z,98442.22
2022-10-30T06:06:15.503Z,98443.06
2022-10-30T06:08:51.624Z,98434.56
2022-10-30T06:11:21.962Z,98442.75
2022-10-30T06:13:51.830Z,98454.56
2022-10-30T06:16:20.453Z,98450.13
2022-10-30T06:18:50.628Z,98452.22
2022-10-30T06:21:20.837Z,98462.22
2022-10-30T06:23:50.375Z,98453.75
2022-10-30T06:26:18.933Z,98450.94
2022-10-30T06:28:47.373Z,98456.53
2022-10-30T06:33:53.713Z,98460.47
2022-10-30T06:36:22.418Z,98459.66
2022-10-30T06:38:51.893Z,98457.94
2022-10-30T06:41:23.340Z,98459.53
2022-10-30T06:43:55.171Z,98460.19
2022-10-30T06:46:30.513Z,98464.41
2022-10-30T06:49:04.262Z,98462.81
2022-10-30T06:51:35.237Z,98456.78
2022-10-30T06:54:04.260Z,98466.75
2022-10-30T06:56:33.203Z,98460.38
2022-10-30T06:59:01.603Z,98462.34
2022-10-30T07:01:31.669Z,98470.72
2022-10-30T07:04:00.175Z,98471.00
2022-10-30T07:06:30.027Z,98467.22
2022-10-30T07:08:59.120Z,98466.41
2022-10-30T07:11:28.108Z,98472.63
2022-10-30T07:13:56.548Z,98465.59
2022-10-30T07:16:28.300Z,98473.28
2022-10-30T07:18:59.375Z,98476.88
2022-10-30T07:21:32.002Z,98472.97
2022-10-30T07:24:00.660Z,98482.78
2022-10-30T07:26:29.112Z,98471.16
2022-10-30T07:28:58.141Z,98478.50
2022-10-30T07:31:41.522Z,98473.63
2022-10-30T07:34:11.928Z,98475.53
2022-10-30T07:36:41.807Z,98478.66
2022-10-30T07:39:10.405Z,98471.94
2022-10-30T07:41:39.559Z,98475.22
2022-10-30T07:44:08.354Z,98478.50
2022-10-30T07:46:36.858Z,98472.91
2022-10-30T07:49:05.280Z,98480.91
2022-10-30T07:51:33.795Z,98476.81
2022-10-30T07:54:03.633Z,98479.44
2022-10-30T07:56:32.076Z,98479.91
2022-10-30T07:59:00.495Z,98474.31
2022-10-30T08:01:29.399Z,98473.31
2022-10-30T08:03:57.921Z,98478.09
2022-10-30T08:06:27.583Z,98476.13
2022-10-30T08:08:56.909Z,98480.00
2022-10-30T08:11:26.778Z,98482.44
2022-10-30T08:13:55.212Z,98472.44
2022-10-30T08:16:23.756Z,98474.53
2022-10-30T08:18:52.477Z,98475.97
2022-10-30T08:21:21.156Z,98478.22
2022-10-30T08:23:49.720Z,98478.53
2022-10-30T08:26:18.228Z,98473.09
2022-10-30T08:28:48.160Z,98477.19
2022-10-30T08:31:16.674Z,98483.06
2022-10-30T08:33:45.115Z,98473.25
2022-10-30T08:36:13.590Z,98477.75
2022-10-30T08:38:42.015Z,98482.63
2022-10-30T08:41:10.483Z,98483.09
2022-10-30T08:43:39.999Z,98467.84
2022-10-30T08:46:11.713Z,98469.94
2022-10-30T08:48:41.114Z,98468.56
2022-10-30T08:51:09.567Z,98461.19
2022-10-30T08:53:38.029Z,98454.59
2022-10-30T08:56:07.521Z,98450.81
2022-10-30T08:58:36.329Z,98452.88
2022-10-30T09:01:05.540Z,98458.41
2022-10-30T09:03:36.723Z,98455.44
2022-10-30T09:06:05.812Z,98458.31
2022-10-30T09:08:34.250Z,98470.03
2022-10-30T09:11:03.067Z,98463.28
2022-10-30T09:13:33.233Z,98459.31
2022-10-30T09:16:03.217Z,98457.16
2022-10-30T09:18:32.636Z,98461.81
2022-10-30T09:21:04.893Z,98463.91
2022-10-30T09:23:33.921Z,98465.16
2022-10-30T09:26:02.486Z,98459.19
2022-10-30T09:28:30.920Z,98453.22
2022-10-30T09:30:59.360Z,98457.75
2022-10-30T09:33:28.077Z,98455.41
2022-10-30T09:35:57.044Z,98452.03
2022-10-30T09:38:26.888Z,98460.16
2022-10-30T09:41:26.534Z,98465.31
2022-10-30T09:44:15.200Z,98453.25
2022-10-30T09:47:01.719Z,98460.81
2022-10-30T09:49:56.195Z,98465.94
2022-10-30T09:52:33.751Z,98455.31
2022-10-30T09:55:29.560Z,98457.00
2022-10-30T09:58:14.399Z,98454.44
2022-10-30T10:00:52.418Z,98463.00
2022-10-30T10:03:42.447Z,98462.25
2022-10-30T10:06:19.594Z,98458.69
2022-10-30T10:08:55.198Z,98458.53
2022-10-30T10:11:32.615Z,98458.38
2022-10-30T10:14:10.297Z,98452.00
2022-10-30T10:16:43.399Z,98455.28
2022-10-30T10:19:22.250Z,98461.00
2022-10-30T10:21:58.323Z,98459.09
2022-10-30T10:24:31.903Z,98458.94
2022-10-30T10:27:13.088Z,98458.16
2022-10-30T10:29:57.513Z,98452.72
2022-10-30T10:33:15.437Z,98460.88
2022-10-30T10:36:18.386Z,98452.44
2022-10-30T10:39:06.205Z,98452.28
2022-10-30T10:42:07.266Z,98446.44
2022-10-30T10:44:51.259Z,98445.06
2022-10-30T10:47:56.784Z,98440.44
2022-10-30T10:50:32.823Z,98440.06
2022-10-30T10:53:11.042Z,98427.94
2022-10-30T10:55:42.576Z,98425.31
2022-10-30T10:58:26.812Z,98416.88
2022-10-30T11:00:58.681Z,98404.94
2022-10-30T11:03:40.150Z,98407.31
2022-10-30T11:06:22.547Z,98400.22
2022-10-30T11:08:54.982Z,98385.78
2022-10-30T11:11:23.521Z,98384.94
2022-10-30T11:13:53.558Z,98383.28
2022-10-30T11:16:32.847Z,98377.16
2022-10-30T11:19:05.678Z,98374.69
2022-10-30T11:21:40.702Z,98378.28
2022-10-30T11:24:30.607Z,98369.28
2022-10-30T11:27:18.211Z,98366.63
2022-10-30T11:29:55.825Z,98366.56
2022-10-30T11:32:29.109Z,98361.47
2022-10-30T11:35:13.329Z,98364.47
2022-10-30T11:37:44.629Z,98351.50
2022-10-30T11:40:21.417Z,98363.63
2022-10-30T11:43:02.602Z,98359.88
2022-10-30T11:45:37.548Z,98359.81
2022-10-30T11:48:19.934Z,98354.44
2022-10-30T11:50:51.645Z,98361.50
2022-10-30T11:53:31.931Z,98365.69
2022-10-30T11:56:01.183Z,98356.19
2022-10-30T11:58:34.831Z,98359.78
2022-10-30T12:01:09.863Z,98354.84
2022-10-30T12:03:40.817Z,98353.63
2022-10-30T12:06:17.247Z,98357.22
2022-10-30T12:09:02.587Z,98360.22
2022-10-30T12:11:36.195Z,98362.66
2022-10-30T12:14:06.425Z,98363.22
2022-10-30T12:16:36.413Z,98369.09
2022-10-30T12:19:09.639Z,98350.97
2022-10-30T12:21:44.625Z,98356.19
2022-10-30T12:24:22.287Z,98351.38
2022-10-30T12:26:54.296Z,98353.91
2022-10-30T12:29:47.937Z,98344.50
2022-10-30T12:32:30.252Z,98342.22
2022-10-30T12:35:07.953Z,98343.38
2022-10-30T12:37:44.713Z,98348.00
2022-10-30T12:40:20.145Z,98347.91
2022-10-30T12:42:58.761Z,98348.16
2022-10-30T12:45:37.057Z,98348.50
2022-10-30T12:48:19.118Z,98346.78
2022-10-30T12:51:06.970Z,98346.91
2022-10-30T12:53:47.855Z,98343.56
2022-10-30T12:56:27.327Z,98352.09
2022-10-30T12:59:13.493Z,98350.25
2022-10-30T13:01:53.845Z,98346.56
2022-10-30T13:04:30.543Z,98355.09
2022-10-30T13:07:07.924Z,98355.09
2022-10-30T13:09:45.511Z,98353.47
2022-10-30T13:12:21.719Z,98352.44
2022-10-30T13:14:58.195Z,98350.81
2022-10-30T13:17:28.621Z,98349.34
2022-10-30T13:20:02.753Z,98341.50
2022-10-30T13:22:42.008Z,98341.06
2022-10-30T13:25:21.312Z,98341.41
2022-10-30T13:27:59.088Z,98337.13
2022-10-30T13:30:36.256Z,98337.13
2022-10-30T13:33:16.357Z,98340.25
2022-10-30T13:36:00.475Z,98337.34
2022-10-30T13:38:46.065Z,98336.09
2022-10-30T13:41:29.721Z,98324.69
2022-10-30T13:44:16.386Z,98328.38
2022-10-30T13:47:13.592Z,98323.09
2022-10-30T13:50:07.594Z,98325.28
2022-10-30T13:52:42.856Z,98322.88
2022-10-30T13:55:24.094Z,98324.28
2022-10-30T13:58:04.615Z,98320.56
2022-10-30T14:00:56.257Z,98323.00
2022-10-30T14:03:48.105Z,98320.69
2022-10-30T14:06:33.724Z,98329.78
2022-10-30T14:09:16.001Z,98326.22
2022-10-30T14:11:44.626Z,98331.16
2022-10-30T14:14:31.100Z,98331.38
2022-10-30T14:17:14.800Z,98334.25
2022-10-30T14:20:31.253Z,98325.59
2022-10-30T14:23:15.498Z,98332.28
2022-10-30T14:25:45.607Z,98337.31
2022-10-30T14:28:22.128Z,98330.44
2022-10-30T14:31:03.846Z,98334.91
2022-10-30T14:33:43.567Z,98332.28
2022-10-30T14:36:20.075Z,98330.09
2022-10-30T14:38:57.553Z,98338.50
2022-10-30T14:41:58.387Z,98333.56
2022-10-30T14:45:10.020Z,98332.88
2022-10-30T14:47:57.199Z,98331.72
2022-10-30T14:50:58.096Z,98332.09
2022-10-30T14:53:55.420Z,98335.09
2022-10-30T14:56:37.734Z,98338.53
2022-10-30T14:59:33.523Z,98342.09
2022-10-30T15:02:38.944Z,98349.00
2022-10-30T15:05:40.830Z,98345.84
2022-10-30T15:08:34.458Z,98350.91
2022-10-30T15:11:33.811Z,98345.25
2022-10-30T15:14:21.238Z,98350.91
2022-10-30T15:16:55.436Z,98351.22
2022-10-30T15:19:26.235Z,98356.63
2022-10-30T15:21:57.855Z,98351.41
2022-10-30T15:24:32.621Z,98349.00
2022-10-30T15:27:05.152Z,98354.59
2022-10-30T15:29:37.889Z,98351.81
2022-10-30T15:32:18.003Z,98360.56
2022-10-30T15:34:57.257Z,98366.41
2022-10-30T15:37:25.829Z,98366.03
2022-10-30T15:40:17.863Z,98367.13
2022-10-30T15:42:48.931Z,98364.94
2022-10-30T15:45:23.004Z,98370.63
2022-10-30T15:48:02.148Z,98361.19
2022-10-30T15:50:33.417Z,98358.41
2022-10-30T15:53:03.240Z,98369.63
2022-10-30T15:55:34.303Z,98367.66
2022-10-30T15:58:06.054Z,98370.75
2022-10-30T16:00:39.744Z,98377.13
2022-10-30T16:03:18.597Z,98377.22
2022-10-30T16:05:47.508Z,98379.94
2022-10-30T16:08:21.696Z,98375.38
2022-10-30T16:10:53.750Z,98381.91
2022-10-30T16:13:31.940Z,98387.47
2022-10-30T16:16:05.290Z,98386.84
2022-10-30T16:18:37.478Z,98386.91
2022-10-30T16:21:11.051Z,98388.03
2022-10-30T16:23:42.616Z,98395.16
2022-10-30T16:26:33.317Z,98401.28
2022-10-30T16:29:26.184Z,98402.53
2022-10-30T16:31:57.763Z,98406.63
2022-10-30T16:34:34.893Z,98407.47
2022-10-30T16:37:06.836Z,98408.34
2022-10-30T16:39:38.375Z,98407.59
2022-10-30T16:42:07.300Z,98417.09
2022-10-30T16:44:37.241Z,98421.78
2022-10-30T16:47:22.279Z,98421.84
2022-10-30T16:49:56.500Z,98423.47
2022-10-30T16:52:29.292Z,98428.75
2022-10-30T16:55:03.310Z,98438.13
2022-10-30T16:57:34.717Z,98432.47
2022-10-30T17:00:05.571Z,98434.53
2022-10-30T17:02:44.678Z,98436.41
2022-10-30T17:05:24.533Z,98442.09
2022-10-30T17:07:58.342Z,98441.13
2022-10-30T17:10:36.743Z,98443.97
2022-10-30T17:13:33.702Z,98457.38
2022-10-30T17:16:24.848Z,98458.22
2022-10-30T17:18:58.219Z,98461.69
2022-10-30T17:21:31.738Z,98461.28
2022-10-30T17:24:02.190Z,98464.34
2022-10-30T17:26:39.926Z,98465.53
2022-10-30T17:29:30.535Z,98470.03
2022-10-30T17:32:01.285Z,98470.84
2022-10-30T17:34:31.913Z,98472.28
2022-10-30T17:37:00.397Z,98475.72
2022-10-30T17:39:28.880Z,98481.41
2022-10-30T17:41:59.294Z,98483.06
2022-10-30T17:44:31.661Z,98487.13
2022-10-30T17:47:01.493Z,98492.00
2022-10-30T17:49:33.694Z,98492.41
2022-10-30T17:52:02.400Z,98494.22
2022-10-30T17:54:30.842Z,98492.19
2022-10-30T17:56:59.915Z,98491.97
2022-10-30T17:59:28.508Z,98496.22
2022-10-30T18:01:57.238Z,98496.81
2022-10-30T18:04:25.740Z,98502.31
2022-10-30T18:06:55.821Z,98504.53
2022-10-30T18:09:24.526Z,98495.81
2022-10-30T18:11:53.148Z,98501.28
2022-10-30T18:14:21.544Z,98505.13
2022-10-30T18:16:53.014Z,98508.34
2022-10-30T18:19:24.004Z,98511.38
2022-10-30T18:21:54.190Z,98509.75
2022-10-30T18:24:24.234Z,98519.25
2022-10-30T18:26:53.926Z,98523.50
2022-10-30T18:29:22.372Z,98523.88
2022-10-30T18:31:50.972Z,98533.19
2022-10-30T18:34:21.614Z,98535.78
2022-10-30T18:36:51.098Z,98536.41
2022-10-30T18:39:19.477Z,98529.72
2022-10-30T18:41:50.238Z,98533.53
2022-10-30T18:44:20.047Z,98540.00
2022-10-30T18:46:48.744Z,98535.97
2022-10-30T18:49:18.865Z,98537.19
2022-10-30T18:51:47.384Z,98549.28
2022-10-30T18:54:17.075Z,98550.66
2022-10-30T18:56:45.775Z,98545.59
2022-10-30T18:59:15.722Z,98549.25
2022-10-30T19:01:44.275Z,98543.97
2022-10-30T19:04:16.763Z,98550.38
2022-10-30T19:06:48.357Z,98552.38
2022-10-30T19:09:16.901Z,98549.53
2022-10-30T19:11:45.797Z,98559.22
2022-10-30T19:14:16.650Z,98559.38
2022-10-30T19:16:45.287Z,98559.94
2022-10-30T19:19:15.143Z,98554.25
2022-10-30T19:21:45.009Z,98555.28
2022-10-30T19:24:17.981Z,98562.75
2022-10-30T19:26:47.257Z,98561.66
2022-10-30T19:29:17.333Z,98560.22
2022-10-30T19:31:45.803Z,98560.63
2022-10-30T19:34:14.289Z,98566.72
2022-10-30T19:36:44.074Z,98566.28
2022-10-30T19:39:16.775Z,98559.47
2022-10-30T19:41:45.848Z,98570.09
2022-10-30T19:44:14.311Z,98572.72
2022-10-30T19:46:44.373Z,98566.84
2022-10-30T19:49:19.570Z,98560.66
2022-10-30T19:51:48.791Z,98565.75
2022-10-30T19:54:17.238Z,98566.19
2022-10-30T19:56:45.791Z,98568.59
2022-10-30T19:59:16.555Z,98565.97
2022-10-30T20:01:46.627Z,98572.84
2022-10-30T20:04:15.316Z,98574.63
2022-10-30T20:06:43.876Z,98573.78
2022-10-30T20:09:12.929Z,98575.16
2022-10-30T20:11:41.430Z,98581.44
2022-10-30T20:14:10.006Z,98582.44
2022-10-30T20:16:38.494Z,98580.81
2022-10-30T20:19:29.859Z,98589.31
2022-10-30T20:21:58.476Z,98582.00
2022-10-30T20:24:26.997Z,98579.88
2022-10-30T20:26:58.897Z,98579.81
2022-10-30T20:29:27.578Z,98582.59
2022-10-30T20:31:56.711Z,98585.81
2022-10-30T20:34:26.685Z,98589.53
2022-10-30T20:36:55.722Z,98585.47
2022-10-30T20:39:24.187Z,98584.91
2022-10-30T20:41:52.747Z,98586.91
2022-10-30T20:44:21.204Z,98581.97
2022-10-30T20:46:49.674Z,98587.66
2022-10-30T20:49:18.729Z,98591.72
2022-10-30T20:51:49.039Z,98593.28
2022-10-30T20:54:18.357Z,98592.44
2022-10-30T20:56:47.575Z,98588.47
2022-10-30T20:59:16.360Z,98589.66
2022-10-30T21:01:45.104Z,98593.09
2022-10-30T21:04:14.424Z,98596.06
2022-10-30T21:06:43.476Z,98592.44
2022-10-30T21:09:13.884Z,98598.50
2022-10-30T21:11:42.396Z,98597.31
2022-10-30T21:14:10.874Z,98589.22
2022-10-30T21:16:39.322Z,98600.06
2022-10-30T21:19:07.807Z,98605.50
2022-10-30T21:21:36.363Z,98605.66
2022-10-30T21:24:05.191Z,98609.31
2022-10-30T21:26:37.799Z,98607.31
2022-10-30T21:29:06.356Z,98607.66
2022-10-30T21:31:35.501Z,98614.84
2022-10-30T21:34:05.111Z,98615.38
2022-10-30T21:36:33.551Z,98618.38
2022-10-30T21:39:02.832Z,98613.66
2022-10-30T21:41:31.658Z,98608.59
2022-10-30T21:44:02.081Z,98614.66
2022-10-30T21:46:32.583Z,98608.97
2022-10-30T21:49:06.365Z,98606.53
2022-10-30T21:51:36.546Z,98610.75
2022-10-30T21:54:05.852Z,98615.22
2022-10-30T21:56:36.192Z,98600.47
2022-10-30T21:59:07.061Z,98604.28
2022-10-30T22:01:38.486Z,98605.19
2022-10-30T22:04:10.205Z,98595.25
2022-10-30T22:06:41.990Z,98602.38
2022-10-30T22:09:11.775Z,98601.84
2022-10-30T22:11:40.981Z,98603.75
2022-10-30T22:14:12.685Z,98603.56
2022-10-30T22:16:42.014Z,98606.00
2022-10-30T22:19:12.564Z,98603.09
2022-10-30T22:21:41.110Z,98606.72
2022-10-30T22:24:10.793Z,98608.59
2022-10-30T22:26:39.609Z,98598.56
2022-10-30T22:29:08.055Z,98597.56
2022-10-30T22:31:38.191Z,98601.19
2022-10-30T22:34:06.723Z,98598.53
2022-10-30T22:36:35.520Z,98605.06
2022-10-30T22:39:07.793Z,98599.81
2022-10-30T22:41:38.304Z,98605.69
2022-10-30T22:44:09.199Z,98604.69
2022-10-30T22:46:39.272Z,98600.28
2022-10-30T22:49:08.659Z,98605.50
2022-10-30T22:51:40.376Z,98601.00
2022-10-30T22:54:12.394Z,98603.69
2022-10-30T22:56:42.296Z,98610.91
2022-10-30T22:59:14.579Z,98610.81
2022-10-30T23:01:45.064Z,98613.97
2022-10-30T23:04:16.071Z,98616.22
2022-10-30T23:06:45.091Z,98619.66
2022-10-30T23:09:19.075Z,98630.03
2022-10-30T23:11:47.708Z,98627.09
2022-10-30T23:14:17.238Z,98631.00
2022-10-30T23:16:47.870Z,98628.03
2022-10-30T23:19:16.381Z,98628.84
2022-10-30T23:21:44.808Z,98624.06
2022-10-30T23:24:13.299Z,98623.09
2022-10-30T23:26:42.420Z,98616.22
2022-10-30T23:29:11.018Z,98619.56
2022-10-30T23:31:43.278Z,98621.88
2022-10-30T23:34:16.777Z,98621.72
2022-10-30T23:36:46.189Z,98624.94
2022-10-30T23:39:18.057Z,98619.91
2022-10-30T23:41:47.189Z,98619.91
2022-10-30T23:44:17.708Z,98624.22
2022-10-30T23:46:46.192Z,98633.41
2022-10-30T23:49:16.059Z,98627.66
2022-10-30T23:51:44.667Z,98639.47
2022-10-30T23:54:13.999Z,98633.06
2022-10-30T23:56:42.607Z,98631.06
2022-10-30T23:59:11.240Z,98635.16
